sensor_id;sensor_type;location;lat;lon;timestamp;pressure;altitude;pressure_sealevel;temperature;humidity
68994;BME280;56054;50.968;5.816;2022-10-31T00:06:39;101271.41;;;16.07;92.67
68994;BME280;56054;50.968;5.816;2022-10-31T00:09:46;101264.56;;;15.92;93.18
68994;BME280;56054;50.968;5.816;2022-10-31T00:12:53;101265.94;;;16.02;93.20
68994;BME280;56054;50.968;5.816;2022-10-31T00:16:00;101259.13;;;16.05;92.30
68994;BME280;56054;50.968;5.816;2022-10-31T00:19:08;101261.84;;;16.07;92.17
68994;BME280;56054;50.968;5.816;2022-10-31T00:22:15;101264.38;;;16.05;91.88
68994;BME280;56054;50.968;5.816;2022-10-31T00:25:28;101266.25;;;16.08;91.27
68994;BME280;56054;50.968;5.816;2022-10-31T00:28:39;101265.59;;;16.12;91.11
68994;BME280;56054;50.968;5.816;2022-10-31T00:35:59;101247.31;;;15.96;90.95
68994;BME280;56054;50.968;5.816;2022-10-31T00:39:06;101239.06;;;15.88;92.19
68994;BME280;56054;50.968;5.816;2022-10-31T00:42:14;101236.50;;;15.90;91.89
68994;BME280;56054;50.968;5.816;2022-10-31T00:45:23;101234.84;;;15.92;91.78
68994;BME280;56054;50.968;5.816;2022-10-31T00:48:30;101237.31;;;15.71;92.85
68994;BME280;56054;50.968;5.816;2022-10-31T00:51:37;101253.63;;;15.49;95.07
68994;BME280;56054;50.968;5.816;2022-10-31T00:54:45;101255.75;;;15.56;94.04
68994;BME280;56054;50.968;5.816;2022-10-31T00:57:52;101252.31;;;15.73;92.72
68994;BME280;56054;50.968;5.816;2022-10-31T01:05:08;101258.25;;;15.36;95.19
68994;BME280;56054;50.968;5.816;2022-10-31T01:08:15;101254.25;;;15.61;92.67
68994;BME280;56054;50.968;5.816;2022-10-31T01:11:23;101248.06;;;15.43;94.44
68994;BME280;56054;50.968;5.816;2022-10-31T01:14:30;101253.34;;;15.60;93.08
68994;BME280;56054;50.968;5.816;2022-10-31T01:17:37;101250.78;;;15.44;93.60
68994;BME280;56054;50.968;5.816;2022-10-31T01:20:45;101252.72;;;15.48;93.40
68994;BME280;56054;50.968;5.816;2022-10-31T01:23:53;101248.91;;;15.41;93.99
68994;BME280;56054;50.968;5.816;2022-10-31T01:27:02;101238.03;;;15.34;94.20
68994;BME280;56054;50.968;5.816;2022-10-31T01:30:09;101243.66;;;15.41;93.70
68994;BME280;56054;50.968;5.816;2022-10-31T01:37:26;101250.94;;;15.31;94.29
68994;BME280;56054;50.968;5.816;2022-10-31T01:40:34;101250.09;;;15.48;92.81
68994;BME280;56054;50.968;5.816;2022-10-31T01:43:56;101250.69;;;15.26;94.30
68994;BME280;56054;50.968;5.816;2022-10-31T01:47:15;101242.91;;;15.44;92.25
68994;BME280;56054;50.968;5.816;2022-10-31T01:50:29;101246.44;;;15.45;92.52
68994;BME280;56054;50.968;5.816;2022-10-31T01:53:44;101237.59;;;15.43;92.58
68994;BME280;56054;50.968;5.816;2022-10-31T01:56:52;101231.97;;;15.18;93.76
68994;BME280;56054;50.968;5.816;2022-10-31T02:00:06;101234.38;;;14.97;95.51
68994;BME280;56054;50.968;5.816;2022-10-31T02:07:37;101233.91;;;15.05;95.11
68994;BME280;56054;50.968;5.816;2022-10-31T02:10:46;101224.56;;;15.10;94.92
68994;BME280;56054;50.968;5.816;2022-10-31T02:13:58;101223.31;;;15.19;93.94
68994;BME280;56054;50.968;5.816;2022-10-31T02:17:06;101229.31;;;15.17;94.55
68994;BME280;56054;50.968;5.816;2022-10-31T02:20:24;101244.56;;;15.09;94.99
68994;BME280;56054;50.968;5.816;2022-10-31T02:24:00;101233.72;;;15.02;95.55
68994;BME280;56054;50.968;5.816;2022-10-31T02:30:23;101240.41;;;14.96;95.68
68994;BME280;56054;50.968;5.816;2022-10-31T02:44:45;101212.53;;;14.97;95.72
68994;BME280;56054;50.968;5.816;2022-10-31T02:48:01;101213.59;;;15.01;95.04
68994;BME280;56054;50.968;5.816;2022-10-31T02:51:13;101210.84;;;14.97;94.69
68994;BME280;56054;50.968;5.816;2022-10-31T02:54:26;101212.72;;;15.00;93.64
68994;BME280;56054;50.968;5.816;2022-10-31T02:57:37;101211.13;;;15.04;94.01
68994;BME280;56054;50.968;5.816;2022-10-31T03:08:41;101217.09;;;15.01;92.98
68994;BME280;56054;50.968;5.816;2022-10-31T03:12:16;101210.91;;;14.83;93.94
68994;BME280;56054;50.968;5.816;2022-10-31T03:15:35;101205.44;;;14.78;94.28
68994;BME280;56054;50.968;5.816;2022-10-31T03:19:04;101206.72;;;14.86;93.74
68994;BME280;56054;50.968;5.816;2022-10-31T03:22:40;101202.34;;;14.85;93.30
68994;BME280;56054;50.968;5.816;2022-10-31T03:25:48;101195.13;;;14.81;93.26
68994;BME280;56054;50.968;5.816;2022-10-31T03:29:03;101198.88;;;14.70;94.15
68994;BME280;56054;50.968;5.816;2022-10-31T03:45:25;101195.63;;;14.74;94.37
68994;BME280;56054;50.968;5.816;2022-10-31T03:48:39;101197.41;;;14.59;94.65
68994;BME280;56054;50.968;5.816;2022-10-31T03:51:51;101202.72;;;14.60;95.00
68994;BME280;56054;50.968;5.816;2022-10-31T03:55:25;101191.34;;;14.60;94.87
68994;BME280;56054;50.968;5.816;2022-10-31T03:58:38;101203.97;;;14.52;95.59
68994;BME280;56054;50.968;5.816;2022-10-31T04:18:28;101200.91;;;14.28;95.93
68994;BME280;56054;50.968;5.816;2022-10-31T04:21:36;101198.34;;;14.44;95.05
68994;BME280;56054;50.968;5.816;2022-10-31T04:24:44;101197.34;;;14.42;95.25
68994;BME280;56054;50.968;5.816;2022-10-31T04:27:52;101207.66;;;14.39;95.44
68994;BME280;56054;50.968;5.816;2022-10-31T04:35:08;101192.91;;;14.25;95.89
68994;BME280;56054;50.968;5.816;2022-10-31T04:38:15;101193.06;;;14.28;95.83
68994;BME280;56054;50.968;5.816;2022-10-31T04:41:23;101188.47;;;14.24;95.94
68994;BME280;56054;50.968;5.816;2022-10-31T04:44:35;101188.94;;;14.31;95.43
68994;BME280;56054;50.968;5.816;2022-10-31T04:47:42;101180.09;;;14.29;95.36
68994;BME280;56054;50.968;5.816;2022-10-31T04:50:49;101177.75;;;14.34;94.88
68994;BME280;56054;50.968;5.816;2022-10-31T04:53:56;101182.13;;;14.35;94.43
68994;BME280;56054;50.968;5.816;2022-10-31T04:57:22;101192.19;;;14.27;94.93
68994;BME280;56054;50.968;5.816;2022-10-31T05:00:36;101188.69;;;14.27;94.31
68994;BME280;56054;50.968;5.816;2022-10-31T05:08:19;101177.38;;;14.28;93.75
68994;BME280;56054;50.968;5.816;2022-10-31T05:11:27;101164.63;;;14.18;94.26
68994;BME280;56054;50.968;5.816;2022-10-31T05:14:47;101170.25;;;14.09;93.52
68994;BME280;56054;50.968;5.816;2022-10-31T05:18:28;101172.38;;;14.16;94.13
68994;BME280;56054;50.968;5.816;2022-10-31T05:21:54;101164.78;;;14.21;93.92
68994;BME280;56054;50.968;5.816;2022-10-31T05:25:03;101168.63;;;14.11;93.77
68994;BME280;56054;50.968;5.816;2022-10-31T05:28:11;101181.84;;;14.14;93.96
68994;BME280;56054;50.968;5.816;2022-10-31T05:35:46;101163.66;;;14.16;93.70
68994;BME280;56054;50.968;5.816;2022-10-31T05:39:08;101167.81;;;14.12;93.64
68994;BME280;56054;50.968;5.816;2022-10-31T05:42:23;101163.75;;;14.17;93.07
68994;BME280;56054;50.968;5.816;2022-10-31T05:45:31;101142.41;;;14.09;93.88
68994;BME280;56054;50.968;5.816;2022-10-31T05:48:59;101146.13;;;13.98;94.07
68994;BME280;56054;50.968;5.816;2022-10-31T05:52:28;101146.06;;;13.82;95.37
68994;BME280;56054;50.968;5.816;2022-10-31T05:55:55;101147.91;;;13.99;94.08
68994;BME280;56054;50.968;5.816;2022-10-31T05:59:03;101145.41;;;14.01;93.76
68994;BME280;56054;50.968;5.816;2022-10-31T06:06:58;101135.16;;;13.89;95.19
68994;BME280;56054;50.968;5.816;2022-10-31T06:10:07;101137.31;;;13.96;94.65
68994;BME280;56054;50.968;5.816;2022-10-31T06:13:15;101144.09;;;13.93;94.28
68994;BME280;56054;50.968;5.816;2022-10-31T06:16:48;101140.38;;;13.89;94.77
68994;BME280;56054;50.968;5.816;2022-10-31T06:20:15;101134.28;;;13.88;94.52
68994;BME280;56054;50.968;5.816;2022-10-31T06:23:40;101144.16;;;13.94;94.29
68994;BME280;56054;50.968;5.816;2022-10-31T06:27:19;101146.59;;;13.91;94.42
68994;BME280;56054;50.968;5.816;2022-10-31T06:30:27;101139.59;;;13.90;94.00
68994;BME280;56054;50.968;5.816;2022-10-31T06:37:52;101130.34;;;13.65;95.18
68994;BME280;56054;50.968;5.816;2022-10-31T06:41:11;101132.31;;;13.69;95.24
68994;BME280;56054;50.968;5.816;2022-10-31T06:44:22;101138.44;;;13.70;94.62
68994;BME280;56054;50.968;5.816;2022-10-31T06:47:28;101141.31;;;13.75;94.15
68994;BME280;56054;50.968;5.816;2022-10-31T06:50:44;101144.31;;;13.66;93.92
68994;BME280;56054;50.968;5.816;2022-10-31T06:54:23;101148.16;;;13.73;93.44
68994;BME280;56054;50.968;5.816;2022-10-31T06:57:34;101151.72;;;13.58;95.37
68994;BME280;56054;50.968;5.816;2022-10-31T07:39:36;101157.97;;;13.77;95.50
68994;BME280;56054;50.968;5.816;2022-10-31T07:42:46;101159.97;;;13.81;95.41
68994;BME280;56054;50.968;5.816;2022-10-31T07:46:27;101157.41;;;13.82;95.86
68994;BME280;56054;50.968;5.816;2022-10-31T07:50:08;101162.91;;;13.87;96.70
68994;BME280;56054;50.968;5.816;2022-10-31T07:53:35;101167.13;;;13.85;96.99
68994;BME280;56054;50.968;5.816;2022-10-31T07:56:56;101166.97;;;13.82;98.41
68994;BME280;56054;50.968;5.816;2022-10-31T08:00:30;101159.03;;;13.95;98.30
68994;BME280;56054;50.968;5.816;2022-10-31T08:36:58;101114.75;;;14.29;100.00
68994;BME280;56054;50.968;5.816;2022-10-31T08:40:13;101105.28;;;14.31;100.00
68994;BME280;56054;50.968;5.816;2022-10-31T08:43:20;101103.81;;;14.37;100.00
68994;BME280;56054;50.968;5.816;2022-10-31T08:46:27;101110.97;;;14.41;100.00
68994;BME280;56054;50.968;5.816;2022-10-31T08:49:34;101103.47;;;14.47;100.00
68994;BME280;56054;50.968;5.816;2022-10-31T08:52:46;101097.59;;;14.51;100.00
68994;BME280;56054;50.968;5.816;2022-10-31T08:55:55;101098.94;;;14.59;100.00
68994;BME280;56054;50.968;5.816;2022-10-31T08:59:04;101092.13;;;14.63;100.00
68994;BME280;56054;50.968;5.816;2022-10-31T09:06:54;101074.44;;;14.75;99.30
68994;BME280;56054;50.968;5.816;2022-10-31T09:10:02;101074.44;;;14.75;98.82
68994;BME280;56054;50.968;5.816;2022-10-31T09:13:13;101062.34;;;14.77;99.06
68994;BME280;56054;50.968;5.816;2022-10-31T09:16:21;101068.56;;;14.79;98.16
68994;BME280;56054;50.968;5.816;2022-10-31T09:19:29;101064.31;;;14.81;97.90
68994;BME280;56054;50.968;5.816;2022-10-31T09:22:35;101070.22;;;14.77;97.68
68994;BME280;56054;50.968;5.816;2022-10-31T09:25:45;101060.81;;;14.81;97.97
68994;BME280;56054;50.968;5.816;2022-10-31T09:29:04;101059.88;;;14.80;97.45
68994;BME280;56054;50.968;5.816;2022-10-31T09:36:22;101039.28;;;14.86;97.66
68994;BME280;56054;50.968;5.816;2022-10-31T09:39:30;101038.28;;;15.01;96.68
68994;BME280;56054;50.968;5.816;2022-10-31T09:50:17;101018.22;;;15.19;96.38
68994;BME280;56054;50.968;5.816;2022-10-31T09:53:30;101014.34;;;15.29;95.85
68994;BME280;56054;50.968;5.816;2022-10-31T09:56:42;101012.13;;;15.36;95.52
68994;BME280;56054;50.968;5.816;2022-10-31T09:59:54;101006.03;;;15.37;95.67
68994;BME280;56054;50.968;5.816;2022-10-31T10:21:42;101009.94;;;15.65;96.05
68994;BME280;56054;50.968;5.816;2022-10-31T10:28:23;100994.38;;;15.86;95.28
68994;BME280;56054;50.968;5.816;2022-10-31T10:36:00;101001.38;;;16.05;94.72
68994;BME280;56054;50.968;5.816;2022-10-31T10:42:26;100987.84;;;16.15;93.26
68994;BME280;56054;50.968;5.816;2022-10-31T10:49:54;100958.88;;;16.33;92.63
68994;BME280;56054;50.968;5.816;2022-10-31T10:53:25;100947.91;;;16.42;92.29
68994;BME280;56054;50.968;5.816;2022-10-31T10:56:46;100967.47;;;16.50;92.14
68994;BME280;56054;50.968;5.816;2022-10-31T10:59:54;100963.59;;;16.61;91.64
68994;BME280;56054;50.968;5.816;2022-10-31T11:07:12;100955.81;;;16.84;91.21
68994;BME280;56054;50.968;5.816;2022-10-31T11:10:20;100946.28;;;16.86;90.56
68994;BME280;56054;50.968;5.816;2022-10-31T11:13:27;100954.78;;;17.01;89.86
68994;BME280;56054;50.968;5.816;2022-10-31T11:16:40;100940.56;;;16.96;89.89
68994;BME280;56054;50.968;5.816;2022-10-31T11:23:25;100915.06;;;17.15;89.90
68994;BME280;56054;50.968;5.816;2022-10-31T11:26:32;100911.69;;;17.19;88.63
68994;BME280;56054;50.968;5.816;2022-10-31T11:29:39;100908.47;;;17.26;89.22
68994;BME280;56054;50.968;5.816;2022-10-31T11:41:15;100878.56;;;17.45;88.88
68994;BME280;56054;50.968;5.816;2022-10-31T11:44:27;100872.53;;;17.47;88.28
68994;BME280;56054;50.968;5.816;2022-10-31T11:47:35;100860.25;;;17.46;87.94
68994;BME280;56054;50.968;5.816;2022-10-31T11:50:48;100860.56;;;17.55;88.30
68994;BME280;56054;50.968;5.816;2022-10-31T11:54:01;100850.06;;;17.55;87.73
68994;BME280;56054;50.968;5.816;2022-10-31T12:08:41;100828.75;;;17.72;86.12
68994;BME280;56054;50.968;5.816;2022-10-31T12:24:39;100795.28;;;17.90;84.26
68994;BME280;56054;50.968;5.816;2022-10-31T12:28:29;100783.19;;;17.95;83.50
68994;BME280;56054;50.968;5.816;2022-10-31T12:35:10;100773.91;;;18.07;83.44
68994;BME280;56054;50.968;5.816;2022-10-31T12:38:42;100761.66;;;18.07;83.29
68994;BME280;56054;50.968;5.816;2022-10-31T12:55:19;100713.31;;;18.31;83.57
68994;BME280;56054;50.968;5.816;2022-10-31T12:58:23;100707.38;;;18.36;83.56
68994;BME280;56054;50.968;5.816;2022-10-31T13:01:38;100712.16;;;18.50;83.75
68994;BME280;56054;50.968;5.816;2022-10-31T13:04:54;100698.25;;;18.54;83.79
68994;BME280;56054;50.968;5.816;2022-10-31T13:08:06;100702.50;;;18.49;82.49
68994;BME280;56054;50.968;5.816;2022-10-31T13:11:23;100691.91;;;18.47;83.21
68994;BME280;56054;50.968;5.816;2022-10-31T13:25:49;100652.50;;;18.49;81.97
68994;BME280;56054;50.968;5.816;2022-10-31T13:29:10;100639.34;;;18.49;81.69
68994;BME280;56054;50.968;5.816;2022-10-31T13:32:19;100635.03;;;18.51;81.66
68994;BME280;56054;50.968;5.816;2022-10-31T13:35:51;100624.78;;;18.61;81.99
68994;BME280;56054;50.968;5.816;2022-10-31T13:54:51;100582.91;;;18.69;80.76
68994;BME280;56054;50.968;5.816;2022-10-31T13:57:59;100591.81;;;18.74;81.09
68994;BME280;56054;50.968;5.816;2022-10-31T14:01:21;100603.88;;;18.66;80.91
68994;BME280;56054;50.968;5.816;2022-10-31T14:04:37;100598.63;;;18.66;79.47
68994;BME280;56054;50.968;5.816;2022-10-31T14:08:04;100598.41;;;18.58;79.75
68994;BME280;56054;50.968;5.816;2022-10-31T14:11:22;100601.84;;;18.56;79.55
68994;BME280;56054;50.968;5.816;2022-10-31T14:18:44;100594.47;;;18.44;79.97
68994;BME280;56054;50.968;5.816;2022-10-31T14:21:53;100575.19;;;18.45;80.42
68994;BME280;56054;50.968;5.816;2022-10-31T14:25:31;100568.25;;;18.47;79.75
68994;BME280;56054;50.968;5.816;2022-10-31T14:28:48;100570.06;;;18.50;79.74
68994;BME280;56054;50.968;5.816;2022-10-31T14:35:14;100553.47;;;18.51;79.57
68994;BME280;56054;50.968;5.816;2022-10-31T14:38:46;100542.94;;;18.51;79.37
68994;BME280;56054;50.968;5.816;2022-10-31T14:42:46;100540.25;;;18.49;79.11
68994;BME280;56054;50.968;5.816;2022-10-31T14:50:17;100529.81;;;18.52;79.01
68994;BME280;56054;50.968;5.816;2022-10-31T14:53:36;100515.81;;;18.53;78.09
68994;BME280;56054;50.968;5.816;2022-10-31T14:56:53;100508.69;;;18.49;78.02
68994;BME280;56054;50.968;5.816;2022-10-31T15:00:08;100511.25;;;18.48;78.82
68994;BME280;56054;50.968;5.816;2022-10-31T15:03:34;100508.53;;;18.45;78.50
68994;BME280;56054;50.968;5.816;2022-10-31T15:06:49;100508.34;;;18.37;78.67
68994;BME280;56054;50.968;5.816;2022-10-31T15:10:06;100507.34;;;18.33;78.42
68994;BME280;56054;50.968;5.816;2022-10-31T15:13:23;100507.13;;;18.26;78.52
68994;BME280;56054;50.968;5.816;2022-10-31T15:16:35;100499.75;;;18.12;78.51
68994;BME280;56054;50.968;5.816;2022-10-31T15:19:45;100492.53;;;18.05;78.47
68994;BME280;56054;50.968;5.816;2022-10-31T15:26:44;100504.44;;;17.92;78.58
68994;BME280;56054;50.968;5.816;2022-10-31T15:29:53;100490.09;;;17.81;78.99
68994;BME280;56054;50.968;5.816;2022-10-31T15:33:00;100498.81;;;17.80;79.36
68994;BME280;56054;50.968;5.816;2022-10-31T15:36:22;100488.69;;;17.65;79.68
68994;BME280;56054;50.968;5.816;2022-10-31T15:39:29;100485.81;;;17.58;79.86
68994;BME280;56054;50.968;5.816;2022-10-31T15:42:39;100482.06;;;17.49;79.90
68994;BME280;56054;50.968;5.816;2022-10-31T15:45:47;100480.97;;;17.43;80.06
68994;BME280;56054;50.968;5.816;2022-10-31T15:48:55;100478.03;;;17.32;80.60
68994;BME280;56054;50.968;5.816;2022-10-31T15:52:15;100478.84;;;17.29;80.35
68994;BME280;56054;50.968;5.816;2022-10-31T15:56:00;100469.72;;;17.18;80.89
68994;BME280;56054;50.968;5.816;2022-10-31T15:59:22;100464.22;;;17.10;81.05
68994;BME280;56054;50.968;5.816;2022-10-31T16:02:32;100477.28;;;17.09;81.19
68994;BME280;56054;50.968;5.816;2022-10-31T16:05:51;100475.56;;;17.09;81.11
68994;BME280;56054;50.968;5.816;2022-10-31T16:09:22;100465.06;;;17.09;81.05
68994;BME280;56054;50.968;5.816;2022-10-31T16:12:35;100462.94;;;16.98;81.59
68994;BME280;56054;50.968;5.816;2022-10-31T16:15:57;100459.22;;;16.91;81.64
68994;BME280;56054;50.968;5.816;2022-10-31T16:19:21;100454.69;;;16.87;81.93
68994;BME280;56054;50.968;5.816;2022-10-31T16:22:35;100461.19;;;16.98;81.63
68994;BME280;56054;50.968;5.816;2022-10-31T16:26:17;100461.75;;;16.89;82.12
68994;BME280;56054;50.968;5.816;2022-10-31T16:29:48;100460.19;;;16.95;81.83
68994;BME280;56054;50.968;5.816;2022-10-31T16:32:57;100465.09;;;16.84;82.38
68994;BME280;56054;50.968;5.816;2022-10-31T16:36:33;100471.91;;;16.79;82.77
68994;BME280;56054;50.968;5.816;2022-10-31T16:39:41;100471.78;;;16.76;83.16
68994;BME280;56054;50.968;5.816;2022-10-31T16:42:49;100471.91;;;16.79;82.85
68994;BME280;56054;50.968;5.816;2022-10-31T16:45:59;100476.09;;;16.74;83.13
68994;BME280;56054;50.968;5.816;2022-10-31T16:49:08;100468.16;;;16.72;83.37
68994;BME280;56054;50.968;5.816;2022-10-31T16:52:16;100448.31;;;16.55;84.01
68994;BME280;56054;50.968;5.816;2022-10-31T16:55:24;100446.44;;;16.51;84.38
68994;BME280;56054;50.968;5.816;2022-10-31T16:58:34;100447.22;;;16.48;84.41
68994;BME280;56054;50.968;5.816;2022-10-31T17:01:48;100457.06;;;16.54;84.04
68994;BME280;56054;50.968;5.816;2022-10-31T17:04:57;100435.66;;;16.41;84.57
68994;BME280;56054;50.968;5.816;2022-10-31T17:08:04;100437.16;;;16.35;85.07
68994;BME280;56054;50.968;5.816;2022-10-31T17:11:25;100436.53;;;16.42;84.55
68994;BME280;56054;50.968;5.816;2022-10-31T17:14:34;100434.09;;;16.22;85.48
68994;BME280;56054;50.968;5.816;2022-10-31T17:17:45;100411.22;;;16.18;85.39
68994;BME280;56054;50.968;5.816;2022-10-31T17:21:20;100425.50;;;16.26;84.93
68994;BME280;56054;50.968;5.816;2022-10-31T17:24:29;100408.84;;;16.00;85.70
68994;BME280;56054;50.968;5.816;2022-10-31T17:27:35;100409.22;;;16.11;84.54
68994;BME280;56054;50.968;5.816;2022-10-31T17:30:48;100408.00;;;16.01;85.11
68994;BME280;56054;50.968;5.816;2022-10-31T17:33:57;100410.25;;;16.15;84.11
68994;BME280;56054;50.968;5.816;2022-10-31T17:37:05;100417.09;;;16.11;83.57
68994;BME280;56054;50.968;5.816;2022-10-31T17:40:14;100415.22;;;16.07;84.40
68994;BME280;56054;50.968;5.816;2022-10-31T17:43:22;100415.34;;;16.12;83.59
68994;BME280;56054;50.968;5.816;2022-10-31T17:46:54;100408.88;;;16.02;84.08
68994;BME280;56054;50.968;5.816;2022-10-31T17:50:03;100415.88;;;16.01;84.06
68994;BME280;56054;50.968;5.816;2022-10-31T17:57:21;100401.00;;;16.00;81.61
68994;BME280;56054;50.968;5.816;2022-10-31T18:00:29;100407.66;;;15.92;81.12
68994;BME280;56054;50.968;5.816;2022-10-31T18:03:38;100406.56;;;15.86;79.86
68994;BME280;56054;50.968;5.816;2022-10-31T18:06:49;100400.22;;;15.79;79.55
68994;BME280;56054;50.968;5.816;2022-10-31T18:09:56;100396.03;;;15.84;78.14
68994;BME280;56054;50.968;5.816;2022-10-31T18:13:03;100396.81;;;15.81;77.59
68994;BME280;56054;50.968;5.816;2022-10-31T18:16:19;100381.88;;;15.79;77.13
68994;BME280;56054;50.968;5.816;2022-10-31T18:19:30;100376.69;;;15.80;76.28
68994;BME280;56054;50.968;5.816;2022-10-31T18:26:56;100375.47;;;15.95;74.63
68994;BME280;56054;50.968;5.816;2022-10-31T18:30:15;100383.00;;;15.86;75.45
68994;BME280;56054;50.968;5.816;2022-10-31T18:37:57;100367.53;;;15.93;75.00
68994;BME280;56054;50.968;5.816;2022-10-31T18:57:48;100353.38;;;16.12;72.41
68994;BME280;56054;50.968;5.816;2022-10-31T19:00:56;100342.53;;;16.29;71.19
68994;BME280;56054;50.968;5.816;2022-10-31T19:04:03;100346.88;;;16.26;71.68
68994;BME280;56054;50.968;5.816;2022-10-31T19:07:10;100350.38;;;16.27;71.96
68994;BME280;56054;50.968;5.816;2022-10-31T19:26:58;100324.19;;;16.54;70.28
68994;BME280;56054;50.968;5.816;2022-10-31T19:30:06;100328.78;;;16.61;69.75
68994;BME280;56054;50.968;5.816;2022-10-31T19:33:14;100323.06;;;16.75;69.21
68994;BME280;56054;50.968;5.816;2022-10-31T19:36:22;100333.16;;;16.88;68.54
68994;BME280;56054;50.968;5.816;2022-10-31T19:39:29;100334.34;;;16.99;68.15
68994;BME280;56054;50.968;5.816;2022-10-31T19:42:39;100316.94;;;17.01;68.16
68994;BME280;56054;50.968;5.816;2022-10-31T19:46:03;100327.41;;;17.00;67.88
68994;BME280;56054;50.968;5.816;2022-10-31T19:49:11;100319.63;;;17.04;67.91
68994;BME280;56054;50.968;5.816;2022-10-31T19:52:18;100343.16;;;17.00;68.38
68994;BME280;56054;50.968;5.816;2022-10-31T19:55:26;100316.28;;;17.08;67.84
68994;BME280;56054;50.968;5.816;2022-10-31T19:58:39;100321.34;;;17.02;68.07
68994;BME280;56054;50.968;5.816;2022-10-31T20:01:47;100322.94;;;16.97;68.67
68994;BME280;56054;50.968;5.816;2022-10-31T20:04:59;100313.41;;;17.01;68.30
68994;BME280;56054;50.968;5.816;2022-10-31T20:08:07;100298.69;;;17.06;68.12
68994;BME280;56054;50.968;5.816;2022-10-31T20:11:14;100291.91;;;17.13;67.82
68994;BME280;56054;50.968;5.816;2022-10-31T20:14:21;100304.09;;;17.10;68.14
68994;BME280;56054;50.968;5.816;2022-10-31T20:17:28;100292.72;;;17.11;68.24
68994;BME280;56054;50.968;5.816;2022-10-31T20:20:34;100294.25;;;17.03;68.55
68994;BME280;56054;50.968;5.816;2022-10-31T20:23:42;100280.31;;;17.06;68.57
68994;BME280;56054;50.968;5.816;2022-10-31T20:26:53;100288.13;;;17.04;68.56
68994;BME280;56054;50.968;5.816;2022-10-31T20:30:00;100280.19;;;17.01;68.89
68994;BME280;56054;50.968;5.816;2022-10-31T20:33:07;100273.09;;;16.99;68.93
68994;BME280;56054;50.968;5.816;2022-10-31T20:36:14;100275.81;;;17.02;68.86
68994;BME280;56054;50.968;5.816;2022-10-31T20:39:22;100264.13;;;16.90;69.71
68994;BME280;56054;50.968;5.816;2022-10-31T21:07:04;100261.53;;;16.92;70.39
68994;BME280;56054;50.968;5.816;2022-10-31T21:35:11;100228.63;;;17.03;70.90
68994;BME280;56054;50.968;5.816;2022-10-31T21:38:19;100220.09;;;17.10;70.65
68994;BME280;56054;50.968;5.816;2022-10-31T21:41:26;100218.19;;;17.05;70.69
68994;BME280;56054;50.968;5.816;2022-10-31T21:44:39;100225.34;;;17.10;70.58
68994;BME280;56054;50.968;5.816;2022-10-31T21:47:49;100226.41;;;17.17;70.66
68994;BME280;56054;50.968;5.816;2022-10-31T21:51:01;100228.34;;;17.24;70.63
68994;BME280;56054;50.968;5.816;2022-10-31T21:54:18;100233.81;;;17.32;70.04
68994;BME280;56054;50.968;5.816;2022-10-31T21:57:30;100240.09;;;17.37;69.79
68994;BME280;56054;50.968;5.816;2022-10-31T22:00:39;100234.97;;;17.43;69.45
68994;BME280;56054;50.968;5.816;2022-10-31T22:03:47;100249.84;;;17.43;69.65
68994;BME280;56054;50.968;5.816;2022-10-31T22:06:55;100249.78;;;17.40;70.13
68994;BME280;56054;50.968;5.816;2022-10-31T22:10:40;100246.22;;;17.38;70.27
68994;BME280;56054;50.968;5.816;2022-10-31T22:13:54;100257.59;;;17.38;70.43
68994;BME280;56054;50.968;5.816;2022-10-31T22:17:19;100257.72;;;17.41;70.38
68994;BME280;56054;50.968;5.816;2022-10-31T22:20:30;100242.06;;;17.46;70.08
68994;BME280;56054;50.968;5.816;2022-10-31T22:27:50;100234.97;;;17.43;70.31
68994;BME280;56054;50.968;5.816;2022-10-31T22:31:04;100222.91;;;17.48;70.07
68994;BME280;56054;50.968;5.816;2022-10-31T22:34:13;100224.66;;;17.49;70.42
68994;BME280;56054;50.968;5.816;2022-10-31T22:37:25;100227.44;;;17.55;70.07
68994;BME280;56054;50.968;5.816;2022-10-31T22:40:35;100230.06;;;17.55;70.25
68994;BME280;56054;50.968;5.816;2022-10-31T22:43:44;100210.66;;;17.50;70.38
68994;BME280;56054;50.968;5.816;2022-10-31T22:46:52;100215.38;;;17.62;69.94
68994;BME280;56054;50.968;5.816;2022-10-31T22:49:59;100218.09;;;17.67;69.86
68994;BME280;56054;50.968;5.816;2022-10-31T22:57:15;100203.41;;;17.75;69.54
68994;BME280;56054;50.968;5.816;2022-10-31T23:00:23;100197.16;;;17.70;69.95
68994;BME280;56054;50.968;5.816;2022-10-31T23:03:55;100200.91;;;17.80;69.69
68994;BME280;56054;50.968;5.816;2022-10-31T23:07:02;100206.16;;;17.80;69.66
68994;BME280;56054;50.968;5.816;2022-10-31T23:10:09;100200.13;;;17.82;69.74
68994;BME280;56054;50.968;5.816;2022-10-31T23:13:16;100212.38;;;17.82;69.92
68994;BME280;56054;50.968;5.816;2022-10-31T23:16:25;100213.03;;;17.73;70.33
68994;BME280;56054;50.968;5.816;2022-10-31T23:19:33;100207.91;;;17.79;70.32
68994;BME280;56054;50.968;5.816;2022-10-31T23:22:40;100208.06;;;17.84;70.29
68994;BME280;56054;50.968;5.816;2022-10-31T23:25:47;100199.16;;;17.79;70.70
68994;BME280;56054;50.968;5.816;2022-10-31T23:28:53;100203.34;;;17.70;71.39
68994;BME280;56054;50.968;5.816;2022-10-31T23:32:01;100201.59;;;17.72;71.63
68994;BME280;56054;50.968;5.816;2022-10-31T23:35:09;100209.53;;;17.74;72.03
68994;BME280;56054;50.968;5.816;2022-10-31T23:38:19;100204.09;;;17.68;72.89
68994;BME280;56054;50.968;5.816;2022-10-31T23:44:40;100199.78;;;17.68;73.98
68994;BME280;56054;50.968;5.816;2022-10-31T23:47:48;100180.91;;;17.83;73.78
68994;BME280;56054;50.968;5.816;2022-10-31T23:51:00;100188.53;;;17.74;75.05
68994;BME280;56054;50.968;5.816;2022-10-31T23:54:18;100178.00;;;17.74;75.56
68994;BME280;56054;50.968;5.816;2022-10-31T23:57:44;100173.50;;;17.70;76.29
